sensor_id;sensor_type;location;lat;lon;timestamp;P1;durP1;ratioP1;P2;durP2;ratioP2
80272;SDS011;69574;45.328;9.598;2024-01-25T00:03:39;80.57;;;44.50;;
80272;SDS011;69574;45.328;9.598;2024-01-25T00:06:05;78.78;;;43.40;;
80272;SDS011;69574;45.328;9.598;2024-01-25T00:08:31;70.00;;;40.33;;
80272;SDS011;69574;45.328;9.598;2024-01-25T00:10:57;73.85;;;41.42;;
80272;SDS011;69574;45.328;9.598;2024-01-25T00:13:22;72.78;;;40.90;;
80272;SDS011;69574;45.328;9.598;2024-01-25T00:15:49;68.50;;;37.70;;
80272;SDS011;69574;45.328;9.598;2024-01-25T00:18:15;69.53;;;40.40;;
80272;SDS011;69574;45.328;9.598;2024-01-25T00:20:41;68.13;;;38.08;;
80272;SDS011;69574;45.328;9.598;2024-01-25T00:23:07;68.38;;;38.33;;
80272;SDS011;69574;45.328;9.598;2024-01-25T00:25:32;69.45;;;38.88;;
80272;SDS011;69574;45.328;9.598;2024-01-25T00:27:58;69.95;;;38.25;;
80272;SDS011;69574;45.328;9.598;2024-01-25T00:30:24;74.63;;;38.92;;
80272;SDS011;69574;45.328;9.598;2024-01-25T00:32:52;66.70;;;39.85;;
80272;SDS011;69574;45.328;9.598;2024-01-25T00:35:31;70.43;;;38.47;;
80272;SDS011;69574;45.328;9.598;2024-01-25T00:37:57;75.00;;;39.65;;
80272;SDS011;69574;45.328;9.598;2024-01-25T00:40:23;74.90;;;40.45;;
80272;SDS011;69574;45.328;9.598;2024-01-25T00:42:49;76.32;;;39.92;;
80272;SDS011;69574;45.328;9.598;2024-01-25T00:45:18;71.13;;;40.45;;
80272;SDS011;69574;45.328;9.598;2024-01-25T00:47:44;76.70;;;41.38;;
80272;SDS011;69574;45.328;9.598;2024-01-25T00:50:12;75.25;;;40.35;;
80272;SDS011;69574;45.328;9.598;2024-01-25T00:52:38;71.55;;;40.05;;
80272;SDS011;69574;45.328;9.598;2024-01-25T00:55:04;77.07;;;41.47;;
80272;SDS011;69574;45.328;9.598;2024-01-25T00:57:30;83.85;;;44.97;;
80272;SDS011;69574;45.328;9.598;2024-01-25T00:59:56;78.57;;;43.50;;
80272;SDS011;69574;45.328;9.598;2024-01-25T01:02:22;76.70;;;41.85;;
80272;SDS011;69574;45.328;9.598;2024-01-25T01:04:48;80.00;;;43.70;;
80272;SDS011;69574;45.328;9.598;2024-01-25T01:07:15;82.00;;;42.70;;
80272;SDS011;69574;45.328;9.598;2024-01-25T01:09:41;81.15;;;45.72;;
80272;SDS011;69574;45.328;9.598;2024-01-25T01:12:07;76.78;;;43.67;;
80272;SDS011;69574;45.328;9.598;2024-01-25T01:14:33;82.57;;;44.67;;
80272;SDS011;69574;45.328;9.598;2024-01-25T01:16:58;84.88;;;46.72;;
80272;SDS011;69574;45.328;9.598;2024-01-25T01:19:24;84.95;;;46.33;;
80272;SDS011;69574;45.328;9.598;2024-01-25T01:21:50;83.65;;;45.38;;
80272;SDS011;69574;45.328;9.598;2024-01-25T01:24:17;81.18;;;43.05;;
80272;SDS011;69574;45.328;9.598;2024-01-25T01:26:42;79.55;;;44.03;;
80272;SDS011;69574;45.328;9.598;2024-01-25T01:29:08;77.50;;;41.97;;
80272;SDS011;69574;45.328;9.598;2024-01-25T01:31:34;80.50;;;44.70;;
80272;SDS011;69574;45.328;9.598;2024-01-25T01:33:59;79.72;;;44.78;;
80272;SDS011;69574;45.328;9.598;2024-01-25T01:36:25;84.95;;;44.08;;
80272;SDS011;69574;45.328;9.598;2024-01-25T01:38:51;80.18;;;43.38;;
80272;SDS011;69574;45.328;9.598;2024-01-25T01:41:18;75.38;;;42.92;;
80272;SDS011;69574;45.328;9.598;2024-01-25T01:43:44;82.57;;;43.88;;
80272;SDS011;69574;45.328;9.598;2024-01-25T01:46:10;85.95;;;45.28;;
80272;SDS011;69574;45.328;9.598;2024-01-25T01:48:36;77.45;;;43.28;;
80272;SDS011;69574;45.328;9.598;2024-01-25T01:51:02;85.90;;;44.20;;
80272;SDS011;69574;45.328;9.598;2024-01-25T01:53:28;79.05;;;44.08;;
80272;SDS011;69574;45.328;9.598;2024-01-25T01:55:54;80.50;;;44.65;;
80272;SDS011;69574;45.328;9.598;2024-01-25T01:58:21;77.80;;;42.65;;
80272;SDS011;69574;45.328;9.598;2024-01-25T02:00:48;82.03;;;44.88;;
80272;SDS011;69574;45.328;9.598;2024-01-25T02:03:14;86.68;;;45.67;;
80272;SDS011;69574;45.328;9.598;2024-01-25T02:05:40;82.82;;;45.35;;
80272;SDS011;69574;45.328;9.598;2024-01-25T02:08:06;86.25;;;45.20;;
80272;SDS011;69574;45.328;9.598;2024-01-25T02:10:32;83.30;;;45.30;;
80272;SDS011;69574;45.328;9.598;2024-01-25T02:12:58;88.60;;;46.63;;
80272;SDS011;69574;45.328;9.598;2024-01-25T02:15:25;83.95;;;46.63;;
80272;SDS011;69574;45.328;9.598;2024-01-25T02:17:51;90.45;;;47.92;;
80272;SDS011;69574;45.328;9.598;2024-01-25T02:20:17;88.72;;;47.67;;
80272;SDS011;69574;45.328;9.598;2024-01-25T02:22:45;95.35;;;48.72;;
80272;SDS011;69574;45.328;9.598;2024-01-25T02:25:10;84.50;;;46.88;;
80272;SDS011;69574;45.328;9.598;2024-01-25T02:27:36;95.13;;;49.95;;
80272;SDS011;69574;45.328;9.598;2024-01-25T02:30:04;105.32;;;52.28;;
80272;SDS011;69574;45.328;9.598;2024-01-25T02:32:30;92.82;;;50.10;;
80272;SDS011;69574;45.328;9.598;2024-01-25T02:34:56;100.32;;;51.17;;
80272;SDS011;69574;45.328;9.598;2024-01-25T02:37:21;98.72;;;51.38;;
80272;SDS011;69574;45.328;9.598;2024-01-25T02:39:48;96.00;;;49.28;;
80272;SDS011;69574;45.328;9.598;2024-01-25T02:42:14;92.45;;;51.10;;
80272;SDS011;69574;45.328;9.598;2024-01-25T02:44:42;94.63;;;50.72;;
80272;SDS011;69574;45.328;9.598;2024-01-25T02:47:08;96.00;;;50.63;;
80272;SDS011;69574;45.328;9.598;2024-01-25T02:49:34;96.75;;;51.17;;
80272;SDS011;69574;45.328;9.598;2024-01-25T02:52:00;93.18;;;48.40;;
80272;SDS011;69574;45.328;9.598;2024-01-25T02:54:26;93.53;;;47.97;;
80272;SDS011;69574;45.328;9.598;2024-01-25T02:56:53;99.13;;;48.97;;
80272;SDS011;69574;45.328;9.598;2024-01-25T02:59:19;89.50;;;47.88;;
80272;SDS011;69574;45.328;9.598;2024-01-25T03:01:44;92.72;;;48.20;;
80272;SDS011;69574;45.328;9.598;2024-01-25T03:04:10;90.90;;;47.97;;
80272;SDS011;69574;45.328;9.598;2024-01-25T03:06:36;94.20;;;51.47;;
80272;SDS011;69574;45.328;9.598;2024-01-25T03:09:02;96.38;;;49.67;;
80272;SDS011;69574;45.328;9.598;2024-01-25T03:11:29;98.15;;;48.45;;
80272;SDS011;69574;45.328;9.598;2024-01-25T03:13:57;91.07;;;49.03;;
80272;SDS011;69574;45.328;9.598;2024-01-25T03:16:22;94.88;;;48.85;;
80272;SDS011;69574;45.328;9.598;2024-01-25T03:18:48;89.32;;;47.60;;
80272;SDS011;69574;45.328;9.598;2024-01-25T03:21:14;86.50;;;46.25;;
80272;SDS011;69574;45.328;9.598;2024-01-25T03:23:39;98.43;;;49.97;;
80272;SDS011;69574;45.328;9.598;2024-01-25T03:26:05;86.68;;;46.35;;
80272;SDS011;69574;45.328;9.598;2024-01-25T03:28:31;87.30;;;46.60;;
80272;SDS011;69574;45.328;9.598;2024-01-25T03:30:58;88.90;;;48.65;;
80272;SDS011;69574;45.328;9.598;2024-01-25T03:33:24;89.70;;;46.67;;
80272;SDS011;69574;45.328;9.598;2024-01-25T03:35:50;86.78;;;45.75;;
80272;SDS011;69574;45.328;9.598;2024-01-25T03:38:17;89.00;;;47.70;;
80272;SDS011;69574;45.328;9.598;2024-01-25T03:40:42;87.90;;;47.40;;
80272;SDS011;69574;45.328;9.598;2024-01-25T03:43:08;88.80;;;47.20;;
80272;SDS011;69574;45.328;9.598;2024-01-25T03:45:34;83.50;;;44.97;;
80272;SDS011;69574;45.328;9.598;2024-01-25T03:48:01;80.60;;;44.47;;
80272;SDS011;69574;45.328;9.598;2024-01-25T03:50:27;83.65;;;45.40;;
80272;SDS011;69574;45.328;9.598;2024-01-25T03:52:52;90.57;;;48.03;;
80272;SDS011;69574;45.328;9.598;2024-01-25T03:55:18;94.25;;;47.28;;
80272;SDS011;69574;45.328;9.598;2024-01-25T03:57:44;95.47;;;46.72;;
80272;SDS011;69574;45.328;9.598;2024-01-25T04:00:10;98.38;;;48.67;;
80272;SDS011;69574;45.328;9.598;2024-01-25T04:02:36;92.53;;;47.08;;
80272;SDS011;69574;45.328;9.598;2024-01-25T04:05:04;97.72;;;47.90;;
80272;SDS011;69574;45.328;9.598;2024-01-25T04:07:29;98.03;;;48.92;;
80272;SDS011;69574;45.328;9.598;2024-01-25T04:09:55;99.43;;;47.65;;
80272;SDS011;69574;45.328;9.598;2024-01-25T04:12:21;94.28;;;47.60;;
80272;SDS011;69574;45.328;9.598;2024-01-25T04:14:46;96.05;;;48.17;;
80272;SDS011;69574;45.328;9.598;2024-01-25T04:17:12;82.53;;;42.70;;
80272;SDS011;69574;45.328;9.598;2024-01-25T04:19:38;88.47;;;46.05;;
80272;SDS011;69574;45.328;9.598;2024-01-25T04:22:05;82.90;;;42.47;;
80272;SDS011;69574;45.328;9.598;2024-01-25T04:24:30;90.07;;;43.90;;
80272;SDS011;69574;45.328;9.598;2024-01-25T04:26:56;82.75;;;42.47;;
80272;SDS011;69574;45.328;9.598;2024-01-25T04:29:22;78.10;;;41.17;;
80272;SDS011;69574;45.328;9.598;2024-01-25T04:31:47;82.82;;;41.95;;
80272;SDS011;69574;45.328;9.598;2024-01-25T04:34:13;89.65;;;43.75;;
80272;SDS011;69574;45.328;9.598;2024-01-25T04:36:39;100.00;;;47.70;;
80272;SDS011;69574;45.328;9.598;2024-01-25T04:39:06;93.45;;;46.90;;
80272;SDS011;69574;45.328;9.598;2024-01-25T04:41:32;87.65;;;46.15;;
80272;SDS011;69574;45.328;9.598;2024-01-25T04:43:58;86.60;;;44.17;;
80272;SDS011;69574;45.328;9.598;2024-01-25T04:46:23;86.45;;;45.83;;
80272;SDS011;69574;45.328;9.598;2024-01-25T04:48:49;83.85;;;43.47;;
80272;SDS011;69574;45.328;9.598;2024-01-25T04:51:15;84.15;;;43.67;;
80272;SDS011;69574;45.328;9.598;2024-01-25T04:53:41;88.07;;;43.80;;
80272;SDS011;69574;45.328;9.598;2024-01-25T04:56:08;78.53;;;43.00;;
80272;SDS011;69574;45.328;9.598;2024-01-25T04:58:34;86.85;;;43.13;;
80272;SDS011;69574;45.328;9.598;2024-01-25T05:01:00;76.97;;;41.47;;
80272;SDS011;69574;45.328;9.598;2024-01-25T05:03:25;76.07;;;40.28;;
80272;SDS011;69574;45.328;9.598;2024-01-25T05:05:51;71.93;;;38.70;;
80272;SDS011;69574;45.328;9.598;2024-01-25T05:08:17;71.53;;;39.47;;
80272;SDS011;69574;45.328;9.598;2024-01-25T05:10:42;75.05;;;39.78;;
80272;SDS011;69574;45.328;9.598;2024-01-25T05:13:09;64.00;;;37.25;;
80272;SDS011;69574;45.328;9.598;2024-01-25T05:15:35;63.83;;;37.15;;
80272;SDS011;69574;45.328;9.598;2024-01-25T05:18:01;62.30;;;37.92;;
80272;SDS011;69574;45.328;9.598;2024-01-25T05:20:27;70.15;;;39.15;;
80272;SDS011;69574;45.328;9.598;2024-01-25T05:22:58;64.97;;;37.45;;
80272;SDS011;69574;45.328;9.598;2024-01-25T05:25:23;64.38;;;36.97;;
80272;SDS011;69574;45.328;9.598;2024-01-25T05:27:50;70.22;;;38.47;;
80272;SDS011;69574;45.328;9.598;2024-01-25T05:30:17;66.45;;;36.88;;
80272;SDS011;69574;45.328;9.598;2024-01-25T05:35:08;66.57;;;36.73;;
80272;SDS011;69574;45.328;9.598;2024-01-25T05:37:33;67.35;;;36.80;;
80272;SDS011;69574;45.328;9.598;2024-01-25T05:39:59;70.60;;;38.55;;
80272;SDS011;69574;45.328;9.598;2024-01-25T05:42:25;69.65;;;38.50;;
80272;SDS011;69574;45.328;9.598;2024-01-25T05:44:51;69.93;;;37.97;;
80272;SDS011;69574;45.328;9.598;2024-01-25T05:47:19;82.03;;;40.63;;
80272;SDS011;69574;45.328;9.598;2024-01-25T05:49:44;77.97;;;41.65;;
80272;SDS011;69574;45.328;9.598;2024-01-25T05:52:10;77.28;;;40.83;;
80272;SDS011;69574;45.328;9.598;2024-01-25T05:54:36;73.63;;;40.30;;
80272;SDS011;69574;45.328;9.598;2024-01-25T05:57:01;77.05;;;39.65;;
80272;SDS011;69574;45.328;9.598;2024-01-25T05:59:27;73.15;;;39.83;;
80272;SDS011;69574;45.328;9.598;2024-01-25T06:01:53;73.60;;;39.65;;
80272;SDS011;69574;45.328;9.598;2024-01-25T06:04:20;74.95;;;40.17;;
80272;SDS011;69574;45.328;9.598;2024-01-25T06:06:45;76.85;;;39.67;;
80272;SDS011;69574;45.328;9.598;2024-01-25T06:09:11;77.63;;;41.25;;
80272;SDS011;69574;45.328;9.598;2024-01-25T06:11:37;79.72;;;40.95;;
80272;SDS011;69574;45.328;9.598;2024-01-25T06:14:04;86.00;;;42.83;;
80272;SDS011;69574;45.328;9.598;2024-01-25T06:16:30;80.88;;;40.75;;
80272;SDS011;69574;45.328;9.598;2024-01-25T06:18:55;85.47;;;44.10;;
80272;SDS011;69574;45.328;9.598;2024-01-25T06:21:23;88.53;;;45.45;;
80272;SDS011;69574;45.328;9.598;2024-01-25T06:23:48;80.53;;;44.15;;
80272;SDS011;69574;45.328;9.598;2024-01-25T06:26:14;85.07;;;42.65;;
80272;SDS011;69574;45.328;9.598;2024-01-25T06:28:39;81.70;;;42.47;;
80272;SDS011;69574;45.328;9.598;2024-01-25T06:31:06;82.30;;;42.67;;
80272;SDS011;69574;45.328;9.598;2024-01-25T06:33:32;89.65;;;45.17;;
80272;SDS011;69574;45.328;9.598;2024-01-25T06:35:57;79.00;;;41.88;;
80272;SDS011;69574;45.328;9.598;2024-01-25T06:38:25;94.78;;;47.78;;
80272;SDS011;69574;45.328;9.598;2024-01-25T06:40:50;94.90;;;46.65;;
80272;SDS011;69574;45.328;9.598;2024-01-25T06:43:16;89.88;;;46.05;;
80272;SDS011;69574;45.328;9.598;2024-01-25T06:45:42;92.45;;;44.75;;
80272;SDS011;69574;45.328;9.598;2024-01-25T06:48:07;100.45;;;45.65;;
80272;SDS011;69574;45.328;9.598;2024-01-25T06:50:36;93.93;;;42.47;;
80272;SDS011;69574;45.328;9.598;2024-01-25T06:53:02;99.30;;;46.22;;
80272;SDS011;69574;45.328;9.598;2024-01-25T06:55:38;87.40;;;42.75;;
80272;SDS011;69574;45.328;9.598;2024-01-25T06:58:14;81.15;;;41.10;;
80272;SDS011;69574;45.328;9.598;2024-01-25T07:00:39;93.28;;;43.63;;
80272;SDS011;69574;45.328;9.598;2024-01-25T07:03:07;71.25;;;39.45;;
80272;SDS011;69574;45.328;9.598;2024-01-25T07:05:33;77.82;;;40.88;;
80272;SDS011;69574;45.328;9.598;2024-01-25T07:10:26;81.03;;;39.13;;
80272;SDS011;69574;45.328;9.598;2024-01-25T07:12:53;76.57;;;39.70;;
80272;SDS011;69574;45.328;9.598;2024-01-25T07:17:44;70.90;;;37.77;;
80272;SDS011;69574;45.328;9.598;2024-01-25T07:20:10;77.53;;;38.28;;
80272;SDS011;69574;45.328;9.598;2024-01-25T07:22:36;76.32;;;40.35;;
80272;SDS011;69574;45.328;9.598;2024-01-25T07:25:01;91.10;;;43.97;;
80272;SDS011;69574;45.328;9.598;2024-01-25T07:27:27;80.80;;;42.28;;
80272;SDS011;69574;45.328;9.598;2024-01-25T07:29:55;84.05;;;42.28;;
80272;SDS011;69574;45.328;9.598;2024-01-25T07:32:20;84.15;;;43.00;;
80272;SDS011;69574;45.328;9.598;2024-01-25T07:34:46;81.18;;;44.42;;
80272;SDS011;69574;45.328;9.598;2024-01-25T07:37:12;95.18;;;46.20;;
80272;SDS011;69574;45.328;9.598;2024-01-25T07:39:38;88.82;;;43.72;;
80272;SDS011;69574;45.328;9.598;2024-01-25T07:42:06;91.38;;;46.30;;
80272;SDS011;69574;45.328;9.598;2024-01-25T07:44:32;90.85;;;45.30;;
80272;SDS011;69574;45.328;9.598;2024-01-25T07:46:59;91.68;;;45.45;;
80272;SDS011;69574;45.328;9.598;2024-01-25T07:49:25;88.20;;;44.33;;
80272;SDS011;69574;45.328;9.598;2024-01-25T07:51:51;89.60;;;43.92;;
80272;SDS011;69574;45.328;9.598;2024-01-25T07:54:17;103.75;;;49.13;;
80272;SDS011;69574;45.328;9.598;2024-01-25T07:56:42;101.95;;;48.85;;
80272;SDS011;69574;45.328;9.598;2024-01-25T07:59:08;92.90;;;47.10;;
80272;SDS011;69574;45.328;9.598;2024-01-25T08:01:34;103.25;;;46.38;;
80272;SDS011;69574;45.328;9.598;2024-01-25T08:04:01;89.78;;;44.58;;
80272;SDS011;69574;45.328;9.598;2024-01-25T08:06:28;93.22;;;49.63;;
80272;SDS011;69574;45.328;9.598;2024-01-25T08:08:54;106.95;;;52.17;;
80272;SDS011;69574;45.328;9.598;2024-01-25T08:11:20;97.43;;;49.42;;
80272;SDS011;69574;45.328;9.598;2024-01-25T08:13:45;92.07;;;47.55;;
80272;SDS011;69574;45.328;9.598;2024-01-25T08:16:12;94.03;;;46.80;;
80272;SDS011;69574;45.328;9.598;2024-01-25T08:18:39;97.07;;;47.47;;
80272;SDS011;69574;45.328;9.598;2024-01-25T08:21:06;100.50;;;48.35;;
80272;SDS011;69574;45.328;9.598;2024-01-25T08:23:32;105.57;;;51.65;;
80272;SDS011;69574;45.328;9.598;2024-01-25T08:25:58;110.13;;;50.95;;
80272;SDS011;69574;45.328;9.598;2024-01-25T08:28:24;105.45;;;52.72;;
80272;SDS011;69574;45.328;9.598;2024-01-25T08:30:51;118.70;;;54.60;;
80272;SDS011;69574;45.328;9.598;2024-01-25T08:33:16;115.63;;;55.55;;
80272;SDS011;69574;45.328;9.598;2024-01-25T08:35:42;126.45;;;56.78;;
80272;SDS011;69574;45.328;9.598;2024-01-25T08:38:09;120.90;;;59.45;;
80272;SDS011;69574;45.328;9.598;2024-01-25T08:40:35;114.20;;;54.95;;
80272;SDS011;69574;45.328;9.598;2024-01-25T08:43:00;107.13;;;53.17;;
80272;SDS011;69574;45.328;9.598;2024-01-25T08:45:26;116.05;;;56.45;;
80272;SDS011;69574;45.328;9.598;2024-01-25T08:47:52;106.43;;;51.80;;
80272;SDS011;69574;45.328;9.598;2024-01-25T08:50:18;111.28;;;52.78;;
80272;SDS011;69574;45.328;9.598;2024-01-25T08:52:43;107.78;;;52.50;;
80272;SDS011;69574;45.328;9.598;2024-01-25T08:55:10;97.82;;;49.67;;
80272;SDS011;69574;45.328;9.598;2024-01-25T08:57:36;91.20;;;48.83;;
80272;SDS011;69574;45.328;9.598;2024-01-25T09:00:02;91.68;;;48.28;;
80272;SDS011;69574;45.328;9.598;2024-01-25T09:02:33;85.85;;;45.63;;
80272;SDS011;69574;45.328;9.598;2024-01-25T09:05:01;86.75;;;45.90;;
80272;SDS011;69574;45.328;9.598;2024-01-25T09:07:27;89.10;;;48.03;;
80272;SDS011;69574;45.328;9.598;2024-01-25T09:09:53;86.43;;;43.63;;
80272;SDS011;69574;45.328;9.598;2024-01-25T09:12:20;91.82;;;49.08;;
80272;SDS011;69574;45.328;9.598;2024-01-25T09:17:11;79.00;;;43.77;;
80272;SDS011;69574;45.328;9.598;2024-01-25T09:19:37;87.10;;;45.88;;
80272;SDS011;69574;45.328;9.598;2024-01-25T09:22:02;90.43;;;46.97;;
80272;SDS011;69574;45.328;9.598;2024-01-25T09:24:29;100.38;;;48.40;;
80272;SDS011;69574;45.328;9.598;2024-01-25T09:26:55;97.35;;;49.70;;
80272;SDS011;69574;45.328;9.598;2024-01-25T09:29:22;103.05;;;52.70;;
80272;SDS011;69574;45.328;9.598;2024-01-25T09:31:49;94.90;;;50.55;;
80272;SDS011;69574;45.328;9.598;2024-01-25T09:34:14;93.70;;;49.40;;
80272;SDS011;69574;45.328;9.598;2024-01-25T09:36:40;104.22;;;52.45;;
80272;SDS011;69574;45.328;9.598;2024-01-25T09:39:06;94.60;;;50.42;;
80272;SDS011;69574;45.328;9.598;2024-01-25T09:41:31;100.13;;;51.05;;
80272;SDS011;69574;45.328;9.598;2024-01-25T09:43:57;98.75;;;51.33;;
80272;SDS011;69574;45.328;9.598;2024-01-25T09:46:24;99.38;;;51.20;;
80272;SDS011;69574;45.328;9.598;2024-01-25T09:48:50;91.78;;;48.72;;
80272;SDS011;69574;45.328;9.598;2024-01-25T09:51:16;92.90;;;47.42;;
80272;SDS011;69574;45.328;9.598;2024-01-25T09:53:42;93.03;;;48.67;;
80272;SDS011;69574;45.328;9.598;2024-01-25T09:56:08;101.85;;;51.97;;
80272;SDS011;69574;45.328;9.598;2024-01-25T09:58:36;100.07;;;51.25;;
80272;SDS011;69574;45.328;9.598;2024-01-25T10:01:02;102.70;;;52.13;;
80272;SDS011;69574;45.328;9.598;2024-01-25T10:03:30;99.00;;;48.63;;
80272;SDS011;69574;45.328;9.598;2024-01-25T10:05:56;107.95;;;53.70;;
80272;SDS011;69574;45.328;9.598;2024-01-25T10:08:21;97.72;;;50.88;;
80272;SDS011;69574;45.328;9.598;2024-01-25T10:10:49;93.25;;;48.70;;
80272;SDS011;69574;45.328;9.598;2024-01-25T10:13:15;98.93;;;51.13;;
80272;SDS011;69574;45.328;9.598;2024-01-25T10:15:41;103.18;;;51.85;;
80272;SDS011;69574;45.328;9.598;2024-01-25T10:18:07;107.63;;;54.20;;
80272;SDS011;69574;45.328;9.598;2024-01-25T10:20:39;94.90;;;50.03;;
80272;SDS011;69574;45.328;9.598;2024-01-25T10:23:07;96.28;;;52.22;;
80272;SDS011;69574;45.328;9.598;2024-01-25T10:25:34;94.78;;;52.15;;
80272;SDS011;69574;45.328;9.598;2024-01-25T10:27:59;98.75;;;53.70;;
80272;SDS011;69574;45.328;9.598;2024-01-25T10:30:25;96.38;;;51.63;;
80272;SDS011;69574;45.328;9.598;2024-01-25T10:32:52;100.93;;;55.38;;
80272;SDS011;69574;45.328;9.598;2024-01-25T10:35:19;95.47;;;51.17;;
80272;SDS011;69574;45.328;9.598;2024-01-25T10:37:47;100.90;;;53.42;;
80272;SDS011;69574;45.328;9.598;2024-01-25T10:40:14;110.30;;;55.65;;
80272;SDS011;69574;45.328;9.598;2024-01-25T10:42:40;94.72;;;51.05;;
80272;SDS011;69574;45.328;9.598;2024-01-25T10:45:07;100.82;;;54.60;;
80272;SDS011;69574;45.328;9.598;2024-01-25T10:47:32;104.25;;;55.53;;
80272;SDS011;69574;45.328;9.598;2024-01-25T10:50:00;94.63;;;52.63;;
80272;SDS011;69574;45.328;9.598;2024-01-25T10:54:54;97.10;;;51.10;;
80272;SDS011;69574;45.328;9.598;2024-01-25T10:57:20;100.18;;;53.00;;
80272;SDS011;69574;45.328;9.598;2024-01-25T10:59:45;101.82;;;52.72;;
80272;SDS011;69574;45.328;9.598;2024-01-25T11:02:12;104.45;;;56.25;;
80272;SDS011;69574;45.328;9.598;2024-01-25T11:04:37;100.85;;;55.72;;
80272;SDS011;69574;45.328;9.598;2024-01-25T11:07:06;97.35;;;53.47;;
80272;SDS011;69574;45.328;9.598;2024-01-25T11:09:33;108.65;;;57.15;;
80272;SDS011;69574;45.328;9.598;2024-01-25T11:12:08;100.70;;;53.25;;
80272;SDS011;69574;45.328;9.598;2024-01-25T11:14:36;96.60;;;52.42;;
80272;SDS011;69574;45.328;9.598;2024-01-25T11:17:14;101.93;;;52.30;;
80272;SDS011;69574;45.328;9.598;2024-01-25T11:19:40;102.15;;;53.40;;
80272;SDS011;69574;45.328;9.598;2024-01-25T11:22:05;102.75;;;56.30;;
80272;SDS011;69574;45.328;9.598;2024-01-25T11:24:31;97.65;;;54.50;;
80272;SDS011;69574;45.328;9.598;2024-01-25T11:27:04;100.75;;;52.78;;
80272;SDS011;69574;45.328;9.598;2024-01-25T11:29:30;108.28;;;57.40;;
80272;SDS011;69574;45.328;9.598;2024-01-25T11:31:56;104.45;;;55.70;;
80272;SDS011;69574;45.328;9.598;2024-01-25T11:34:22;112.85;;;61.10;;
80272;SDS011;69574;45.328;9.598;2024-01-25T11:36:48;101.30;;;57.00;;
80272;SDS011;69574;45.328;9.598;2024-01-25T11:39:15;114.97;;;59.47;;
80272;SDS011;69574;45.328;9.598;2024-01-25T11:41:41;96.97;;;53.92;;
80272;SDS011;69574;45.328;9.598;2024-01-25T11:44:09;106.70;;;55.92;;
80272;SDS011;69574;45.328;9.598;2024-01-25T11:46:34;92.35;;;52.67;;
80272;SDS011;69574;45.328;9.598;2024-01-25T11:49:00;97.35;;;55.17;;
80272;SDS011;69574;45.328;9.598;2024-01-25T11:51:26;97.78;;;53.20;;
80272;SDS011;69574;45.328;9.598;2024-01-25T11:53:52;104.95;;;56.00;;
80272;SDS011;69574;45.328;9.598;2024-01-25T11:56:18;103.35;;;54.50;;
80272;SDS011;69574;45.328;9.598;2024-01-25T12:01:11;96.23;;;51.47;;
80272;SDS011;69574;45.328;9.598;2024-01-25T12:03:38;101.70;;;54.33;;
80272;SDS011;69574;45.328;9.598;2024-01-25T12:06:04;99.15;;;52.15;;
80272;SDS011;69574;45.328;9.598;2024-01-25T12:08:31;107.90;;;57.20;;
80272;SDS011;69574;45.328;9.598;2024-01-25T12:11:06;98.68;;;53.20;;
80272;SDS011;69574;45.328;9.598;2024-01-25T12:13:35;100.57;;;54.47;;
80272;SDS011;69574;45.328;9.598;2024-01-25T12:16:02;105.53;;;56.88;;
80272;SDS011;69574;45.328;9.598;2024-01-25T12:18:30;103.28;;;54.88;;
80272;SDS011;69574;45.328;9.598;2024-01-25T12:20:57;97.00;;;53.40;;
80272;SDS011;69574;45.328;9.598;2024-01-25T12:23:23;107.30;;;56.38;;
80272;SDS011;69574;45.328;9.598;2024-01-25T12:25:55;104.05;;;55.90;;
80272;SDS011;69574;45.328;9.598;2024-01-25T12:28:20;99.13;;;53.42;;
80272;SDS011;69574;45.328;9.598;2024-01-25T12:30:46;101.05;;;54.30;;
80272;SDS011;69574;45.328;9.598;2024-01-25T12:33:12;102.95;;;55.40;;
80272;SDS011;69574;45.328;9.598;2024-01-25T12:35:40;100.97;;;55.60;;
80272;SDS011;69574;45.328;9.598;2024-01-25T12:38:07;104.85;;;55.47;;
80272;SDS011;69574;45.328;9.598;2024-01-25T12:42:58;93.63;;;52.65;;
80272;SDS011;69574;45.328;9.598;2024-01-25T12:45:24;101.93;;;55.42;;
80272;SDS011;69574;45.328;9.598;2024-01-25T12:47:50;100.63;;;54.53;;
80272;SDS011;69574;45.328;9.598;2024-01-25T12:50:15;100.05;;;54.88;;
80272;SDS011;69574;45.328;9.598;2024-01-25T12:52:42;102.20;;;54.95;;
80272;SDS011;69574;45.328;9.598;2024-01-25T12:55:08;101.50;;;56.45;;
80272;SDS011;69574;45.328;9.598;2024-01-25T12:57:34;105.45;;;55.28;;
80272;SDS011;69574;45.328;9.598;2024-01-25T12:59:59;104.18;;;58.10;;
80272;SDS011;69574;45.328;9.598;2024-01-25T13:02:25;103.30;;;55.60;;
80272;SDS011;69574;45.328;9.598;2024-01-25T13:04:51;99.72;;;56.63;;
80272;SDS011;69574;45.328;9.598;2024-01-25T13:07:17;101.45;;;57.08;;
80272;SDS011;69574;45.328;9.598;2024-01-25T13:09:44;100.43;;;55.05;;
80272;SDS011;69574;45.328;9.598;2024-01-25T13:12:10;103.80;;;55.63;;
80272;SDS011;69574;45.328;9.598;2024-01-25T13:14:36;96.47;;;55.22;;
80272;SDS011;69574;45.328;9.598;2024-01-25T13:17:02;99.38;;;55.47;;
80272;SDS011;69574;45.328;9.598;2024-01-25T13:19:28;96.35;;;53.55;;
80272;SDS011;69574;45.328;9.598;2024-01-25T13:21:53;98.55;;;53.72;;
80272;SDS011;69574;45.328;9.598;2024-01-25T13:24:19;102.63;;;54.53;;
80272;SDS011;69574;45.328;9.598;2024-01-25T13:26:46;101.03;;;54.80;;
80272;SDS011;69574;45.328;9.598;2024-01-25T13:29:12;100.65;;;55.35;;
80272;SDS011;69574;45.328;9.598;2024-01-25T13:31:38;97.93;;;55.22;;
80272;SDS011;69574;45.328;9.598;2024-01-25T13:34:04;104.07;;;55.10;;
80272;SDS011;69574;45.328;9.598;2024-01-25T13:36:29;95.60;;;53.83;;
80272;SDS011;69574;45.328;9.598;2024-01-25T13:38:55;94.47;;;51.47;;
80272;SDS011;69574;45.328;9.598;2024-01-25T13:41:21;96.40;;;53.35;;
80272;SDS011;69574;45.328;9.598;2024-01-25T13:43:48;93.30;;;50.25;;
80272;SDS011;69574;45.328;9.598;2024-01-25T13:46:13;98.75;;;53.55;;
80272;SDS011;69574;45.328;9.598;2024-01-25T13:48:39;93.60;;;52.22;;
80272;SDS011;69574;45.328;9.598;2024-01-25T13:51:05;92.85;;;53.10;;
80272;SDS011;69574;45.328;9.598;2024-01-25T13:53:30;101.13;;;54.55;;
80272;SDS011;69574;45.328;9.598;2024-01-25T13:55:56;97.22;;;51.92;;
80272;SDS011;69574;45.328;9.598;2024-01-25T13:58:22;99.97;;;52.75;;
80272;SDS011;69574;45.328;9.598;2024-01-25T14:00:49;98.80;;;54.03;;
80272;SDS011;69574;45.328;9.598;2024-01-25T14:03:15;97.60;;;54.47;;
80272;SDS011;69574;45.328;9.598;2024-01-25T14:05:41;97.80;;;53.28;;
80272;SDS011;69574;45.328;9.598;2024-01-25T14:08:07;108.28;;;58.85;;
80272;SDS011;69574;45.328;9.598;2024-01-25T14:10:33;98.95;;;54.75;;
80272;SDS011;69574;45.328;9.598;2024-01-25T14:12:59;112.00;;;59.70;;
80272;SDS011;69574;45.328;9.598;2024-01-25T14:15:25;114.82;;;59.63;;
80272;SDS011;69574;45.328;9.598;2024-01-25T14:17:52;110.20;;;56.40;;
80272;SDS011;69574;45.328;9.598;2024-01-25T14:20:18;102.90;;;57.97;;
80272;SDS011;69574;45.328;9.598;2024-01-25T14:22:43;106.97;;;58.50;;
80272;SDS011;69574;45.328;9.598;2024-01-25T14:25:09;105.63;;;57.28;;
80272;SDS011;69574;45.328;9.598;2024-01-25T14:27:36;106.20;;;57.08;;
80272;SDS011;69574;45.328;9.598;2024-01-25T14:30:02;111.07;;;59.67;;
80272;SDS011;69574;45.328;9.598;2024-01-25T14:34:56;104.53;;;56.10;;